Terminal Aerodrome Forecast
Issued by NWS

Home | Current Version | Previous Version | Text Only | Print | Product List | Glossary On
Versions: 1 2 3 4 5 6 7 8 9 10 11 12 13 14 15 16 17
635
FTUS43 KAPX 182334
TAFPLN
TAF
KPLN 182334Z 1900/1924 35011KT P6SM SCT011 OVC018
     FM190300 34012G21KT P6SM VCSH OVC020
     FM190900 33010G20KT P6SM -SHSN OVC030
     FM191500 32012G22KT P6SM -SHSN BKN035
     FM192000 30012G23KT P6SM -SHSN BKN035=

USA.gov is the U.S. government's official web portal to all federal, state and local government web resources and services.